Meteo Giornale » Osservazioni meteo Italia » Roma-Ciampino

ore: 08:20 - Osservazioni Meteo Roma-Ciampino
Lat. 41° 47' N Lon. 12° 35' E Alt. 129 metri s.l.m.

coperto_pioggia Europe/Rome

13 °C

Pioggia Debole

Temp. 24 Ore

11 °C

15 °C

Sud/Sud-Est

22.2 Km/h

Dew point 6 °C

Umidità 62 %

Visibilità  10 Km

Il sole sorge alle ore 06:33

Il sole tramonta alle ore 19:47

Data e Ora Cielo e Fenomeni T °C DP °C Um. % Pres. hPa Vis. km Vento km/h
Oggi h: 08:20 coperto_pioggia Pioggia Debole 13 6 62 1019 10 S/SE 22.2
Oggi h: 07:50 coperto_pioggia Pioggia Debole 13 3 50 1019 10 S 22.2
Oggi h: 07:20 molto_nuvoloso Molto Nuvoloso 13 2 47 1019 10 S 16.7
Oggi h: 06:50 sereno Sereno 13 2 47 1019 10 S 16.7
Oggi h: 05:50 sereno Sereno 12 5 62 1019 10 S 16.7
Oggi h: 05:20 sereno Sereno 12 6 66 1019 10 S 13
Oggi h: 04:50 sereno Sereno 12 6 66 1019 10 S 13
Oggi h: 04:20 sereno Sereno 12 7 71 1020 10 S 16.7
Oggi h: 03:50 sereno Sereno 12 6 66 1020 10 S 14.8
Oggi h: 03:20 sereno Sereno 12 6 66 1019 10 S 14.8
Oggi h: 02:50 sereno Sereno 12 7 71 1020 10 S/SO 14.8
Oggi h: 02:20 sereno Sereno 11 7 76 1020 10 N 3.7
Oggi h: 01:50 sereno Sereno 11 7 76 1021 10 N 1.8
Oggi h: 01:20 sereno Sereno 12 7 71 1021 10 S/SE 13
Oggi h: 00:50 sereno Sereno 12 7 71 1021 10 S 14.8
Oggi h: 00:20 sereno Sereno 11 7 76 1022 10 S/SO 7.4
Ieri h: 23:50 sereno Sereno 11 8 81 1021 10 N 1.8
Ieri h: 23:20 nuvoloso Nuvoloso 11 8 81 1022 10 N 5.5
Ieri h: 22:50 nuvoloso Nuvoloso 12 7 71 1022 10 N 5.5
Ieri h: 22:20 nuvoloso Nuvoloso 12 7 71 1022 10 N 5.5
Ieri h: 21:50 sereno Sereno 12 7 71 1022 10 S/SE 13
Ieri h: 21:20 sereno Sereno 12 7 71 1022 10 S 11.1
Ieri h: 20:50 sereno Sereno 12 7 71 1022 10 S 13
Ieri h: 20:20 sereno Sereno 13 7 66 1022 10 S 13
Ieri h: 19:50 sereno Sereno 13 7 66 1022 10 S 9.3
Ieri h: 19:20 poco_nuvoloso Poco Nuvoloso 13 8 71 1022 10 S/SO 11.1
Ieri h: 18:50 molto_nuvoloso Molto Nuvoloso 13 8 71 1022 10 S/SO 14.8
Ieri h: 17:50 molto_nuvoloso Molto Nuvoloso 14 6 58 1022 10 S/SO 16.7
Ieri h: 17:20 molto_nuvoloso Molto Nuvoloso 14 7 62 1022 10 S/SO 16.7
Ieri h: 16:50 molto_nuvoloso Molto Nuvoloso 14 8 67 1023 10 S/SO 14.8
Ieri h: 16:20 molto_nuvoloso Molto Nuvoloso 14 7 62 1023 10 S/SO 14.8
Ieri h: 15:50 molto_nuvoloso Molto Nuvoloso 14 6 58 1023 10 S 18.5
Ieri h: 15:20 molto_nuvoloso Molto Nuvoloso 14 6 58 1023 10 S/SO 16.7
Ieri h: 14:50 molto_nuvoloso Molto Nuvoloso 14 7 62 1024 10 S 16.7
Ieri h: 14:20 coperto_pioggia Pioviggine Leggera 14 8 67 1024 10 S/SO 16.7
Ieri h: 13:50 coperto_pioggia Pioviggine Leggera 13 8 71 1024 10 S/SO 18.5
Ieri h: 13:20 nuvoloso Nuvoloso 14 6 58 1024 10 S 18.5
Ieri h: 12:50 nuvoloso Nuvoloso 15 6 54 1024 10 S 18.5
Ieri h: 12:20 nuvoloso Nuvoloso 15 6 54 1024 10 S 22.2
Ieri h: 11:50 molto_nuvoloso Molto Nuvoloso 15 5 51 1025 10 S 18.5
Ieri h: 11:20 molto_nuvoloso Molto Nuvoloso 15 5 51 1025 10 S/SE 24
Ieri h: 10:50 molto_nuvoloso Molto Nuvoloso 14 5 54 1025 10 S 22.2
Ieri h: 10:20 nuvoloso Nuvoloso 14 5 54 1025 10 S/SE 22.2
Ieri h: 09:50 nuvoloso Nuvoloso 14 4 50 1024 10 S 16.7
Ieri h: 09:20 nuvoloso Nuvoloso 14 4 50 1024 10 S 20.3
Ieri h: 08:50 nuvoloso Nuvoloso 14 2 44 1024 10 S/SE 16.7